Time;durP1;ratioP1;P1;durP2;ratioP2;P2;SDS_P1;SDS_P2;PMS_P1;PMS_P2;Temp;Humidity;BMP_temperature;BMP_pressure;BME280_temperature;BME280_humidity;BME280_pressure;Samples;Min_cycle;Max_cycle;Signal;HPM_P1;HPM_P2
2020/12/16 00:01:26;;;;;;;17.30;12.32;;;7.30;99.90;;;;;;4953090;28;20035;-80
2020/12/16 00:03:52;;;;;;;16.38;11.90;;;7.20;99.90;;;;;;4951429;28;20038;-79
2020/12/16 00:06:17;;;;;;;15.20;10.73;;;7.10;99.90;;;;;;4952417;28;20034;-83
2020/12/16 00:08:43;;;;;;;15.35;11.75;;;7.30;99.90;;;;;;4952091;28;20030;-81
2020/12/16 00:11:08;;;;;;;15.07;11.00;;;7.30;99.90;;;;;;4952772;28;20482;-79
2020/12/16 00:13:34;;;;;;;16.00;9.85;;;7.20;99.90;;;;;;4952528;28;20110;-80
2020/12/16 00:16:00;;;;;;;15.50;10.80;;;7.30;99.90;;;;;;4952131;28;20110;-82
2020/12/16 00:18:26;;;;;;;14.48;10.73;;;7.50;99.90;;;;;;4952474;28;20477;-80
2020/12/16 00:20:51;;;;;;;13.65;10.80;;;7.40;99.90;;;;;;4952511;28;20019;-81
2020/12/16 00:23:17;;;;;;;16.17;11.77;;;7.30;99.90;;;;;;4968867;28;20046;-79
2020/12/16 00:25:43;;;;;;;20.13;13.13;;;7.10;99.90;;;;;;4969584;28;20019;-80
2020/12/16 00:28:09;;;;;;;13.85;10.00;;;6.90;99.90;;;;;;4970620;28;20118;-80
2020/12/16 00:30:35;;;;;;;18.85;11.52;;;6.90;99.90;;;;;;4970527;28;20122;-79
2020/12/16 00:33:00;;;;;;;15.23;11.13;;;6.90;99.90;;;;;;4971594;28;20509;-81
2020/12/16 00:35:29;;;;;;;15.82;11.50;;;6.80;99.90;;;;;;4971501;28;20045;-80
2020/12/16 00:37:56;;;;;;;14.98;11.18;;;6.80;99.90;;;;;;4971618;28;20019;-79
2020/12/16 00:40:22;;;;;;;15.63;11.48;;;6.70;99.90;;;;;;4971490;28;20062;-80
2020/12/16 00:42:48;;;;;;;41.25;8.80;;;6.50;99.90;;;;;;4973953;28;20493;-81
2020/12/16 00:45:14;;;;;;;15.07;8.60;;;6.60;99.90;;;;;;4981478;28;20034;-80
2020/12/16 00:47:40;;;;;;;11.48;8.23;;;6.50;99.90;;;;;;4985269;28;20038;-80
2020/12/16 00:50:07;;;;;;;11.90;8.52;;;6.60;99.90;;;;;;4989873;28;20035;-81
2020/12/16 00:52:33;;;;;;;10.93;7.95;;;6.60;99.90;;;;;;4985990;28;20066;-81
2020/12/16 00:54:59;;;;;;;10.35;7.88;;;6.60;99.90;;;;;;4975593;28;20027;-79
2020/12/16 00:57:24;;;;;;;31.65;10.10;;;6.50;99.90;;;;;;4971359;28;20445;-78
2020/12/16 00:59:50;;;;;;;148.70;13.38;;;6.40;99.90;;;;;;4970229;28;20018;-79
2020/12/16 01:02:16;;;;;;;16.58;12.45;;;6.20;99.90;;;;;;4970872;28;20038;-79
2020/12/16 01:04:41;;;;;;;16.13;11.50;;;6.50;99.90;;;;;;4971541;28;20118;-78
2020/12/16 01:07:08;;;;;;;12.73;9.60;;;6.70;99.90;;;;;;4972335;28;20027;-79
2020/12/16 01:09:33;;;;;;;22.77;8.05;;;6.80;99.90;;;;;;4973404;28;20023;-79
2020/12/16 01:11:59;;;;;;;20.48;7.75;;;6.80;99.90;;;;;;4973316;28;20046;-79
2020/12/16 01:14:25;;;;;;;13.38;7.60;;;6.80;99.90;;;;;;4973094;28;20436;-79
2020/12/16 01:16:51;;;;;;;39.83;7.38;;;6.80;99.90;;;;;;4972678;28;20031;-79
2020/12/16 01:19:16;;;;;;;9.57;7.70;;;6.80;99.90;;;;;;4972021;28;20085;-80
2020/12/16 01:21:42;;;;;;;9.82;7.82;;;6.60;99.90;;;;;;4971849;28;20027;-78
2020/12/16 01:24:08;;;;;;;10.88;7.32;;;6.70;99.90;;;;;;4972869;28;20033;-79
2020/12/16 01:26:46;;;;;;;35.92;8.55;;;6.60;99.90;;;;;;4971673;28;20033;-79
2020/12/16 01:29:12;;;;;;;23.58;8.15;;;6.60;99.90;;;;;;4972848;28;20027;-78
2020/12/16 01:31:48;;;;;;;9.05;7.50;;;6.60;99.90;;;;;;4972490;28;20027;-79
2020/12/16 01:34:19;;;;;;;54.80;8.70;;;6.50;99.90;;;;;;4972253;28;20038;-79
2020/12/16 01:36:46;;;;;;;23.20;8.70;;;6.40;99.90;;;;;;4972396;28;20484;-78
2020/12/16 01:39:12;;;;;;;11.17;8.23;;;6.00;99.90;;;;;;4970991;28;20069;-79
2020/12/16 01:41:46;;;;;;;10.50;8.05;;;6.10;99.90;;;;;;4970664;28;20034;-78
2020/12/16 01:44:22;;;;;;;10.75;8.32;;;6.20;99.90;;;;;;4971704;28;20037;-79
2020/12/16 01:46:51;;;;;;;11.35;8.50;;;6.10;99.90;;;;;;4970213;28;20029;-79
2020/12/16 01:49:18;;;;;;;23.70;7.75;;;6.10;99.90;;;;;;4971922;28;20027;-79
2020/12/16 01:51:44;;;;;;;35.97;8.25;;;6.20;99.90;;;;;;4970408;28;20027;-78
2020/12/16 01:54:13;;;;;;;42.63;9.02;;;6.20;99.90;;;;;;4970993;28;20027;-81
2020/12/16 01:56:41;;;;;;;50.25;9.23;;;6.10;99.90;;;;;;4970971;28;20377;-79
2020/12/16 01:59:11;;;;;;;52.22;9.73;;;6.10;99.90;;;;;;4972307;28;20038;-79
2020/12/16 02:01:40;;;;;;;47.08;8.57;;;6.00;99.90;;;;;;4970043;28;20023;-80
2020/12/16 02:04:08;;;;;;;100.35;10.02;;;6.00;99.90;;;;;;4970346;28;20022;-79
2020/12/16 02:06:35;;;;;;;143.10;9.98;;;5.90;99.90;;;;;;4972604;28;20529;-79
2020/12/16 02:09:06;;;;;;;11.60;8.77;;;5.80;99.90;;;;;;4972119;28;20030;-79
2020/12/16 02:11:33;;;;;;;41.85;9.00;;;5.80;99.90;;;;;;4972729;28;20027;-79
2020/12/16 02:14:00;;;;;;;68.53;9.55;;;5.90;99.90;;;;;;4973408;28;20398;-80
2020/12/16 02:16:28;;;;;;;94.47;9.88;;;5.90;99.90;;;;;;4971507;28;20035;-80
2020/12/16 02:18:53;;;;;;;101.18;9.52;;;5.90;99.90;;;;;;4970991;28;20347;-80
2020/12/16 02:21:19;;;;;;;40.72;9.05;;;5.90;99.90;;;;;;4987217;28;20473;-79
2020/12/16 02:23:47;;;;;;;55.20;9.88;;;5.80;99.90;;;;;;4971018;28;20027;-80
2020/12/16 02:26:13;;;;;;;76.00;9.57;;;5.80;99.90;;;;;;4971653;28;20027;-79
2020/12/16 02:28:39;;;;;;;19.30;8.95;;;5.80;99.90;;;;;;4971775;28;20022;-81
2020/12/16 02:31:05;;;;;;;57.45;8.88;;;5.80;99.90;;;;;;4971832;28;20081;-79
2020/12/16 02:33:30;;;;;;;50.92;9.00;;;5.80;99.90;;;;;;4985832;28;20033;-78
2020/12/16 02:35:56;;;;;;;48.03;8.75;;;5.80;99.90;;;;;;4970475;28;20039;-79
2020/12/16 02:38:22;;;;;;;26.60;9.15;;;5.80;99.90;;;;;;4970471;28;20023;-80
2020/12/16 02:40:47;;;;;;;11.23;8.27;;;5.80;99.90;;;;;;4970318;28;20531;-79
2020/12/16 02:43:13;;;;;;;38.40;8.35;;;5.80;99.90;;;;;;4969476;28;20031;-79
2020/12/16 02:45:39;;;;;;;19.13;8.00;;;5.80;99.90;;;;;;4967883;28;20031;-79
2020/12/16 02:48:04;;;;;;;64.32;8.68;;;5.80;99.90;;;;;;4970870;28;20501;-79
2020/12/16 02:50:30;;;;;;;14.70;8.35;;;5.80;99.90;;;;;;4971776;28;20031;-79
2020/12/16 02:52:55;;;;;;;13.13;8.00;;;5.90;99.90;;;;;;4987048;28;20031;-79
2020/12/16 02:55:21;;;;;;;16.42;8.88;;;6.00;99.90;;;;;;4970929;28;20034;-80
2020/12/16 02:57:47;;;;;;;36.85;8.45;;;5.90;99.90;;;;;;4970686;28;20034;-80
2020/12/16 03:00:12;;;;;;;29.27;8.68;;;6.00;99.90;;;;;;4969958;28;20051;-78
2020/12/16 03:02:38;;;;;;;33.17;8.50;;;6.10;99.90;;;;;;4987845;28;20027;-80
2020/12/16 03:05:03;;;;;;;12.40;8.32;;;6.10;99.90;;;;;;4972795;28;20102;-79
2020/12/16 03:07:29;;;;;;;12.05;8.27;;;6.10;99.90;;;;;;4975033;28;20054;-82
2020/12/16 03:09:55;;;;;;;12.98;8.38;;;6.10;99.90;;;;;;4976926;28;20031;-79
2020/12/16 03:12:20;;;;;;;12.80;8.77;;;6.10;99.90;;;;;;4991597;28;20146;-79
2020/12/16 03:14:46;;;;;;;12.75;7.95;;;6.10;99.90;;;;;;4975106;28;20370;-79
2020/12/16 03:17:12;;;;;;;13.43;7.88;;;6.20;99.90;;;;;;4976368;28;20035;-79
2020/12/16 03:19:38;;;;;;;11.60;7.95;;;6.20;99.90;;;;;;4975417;28;20050;-79
2020/12/16 03:22:03;;;;;;;12.75;8.23;;;6.30;99.90;;;;;;4975063;28;20461;-79
2020/12/16 03:24:29;;;;;;;16.83;8.15;;;6.20;99.90;;;;;;4976482;28;20030;-79
2020/12/16 03:26:55;;;;;;;12.50;8.82;;;6.20;99.90;;;;;;4976409;28;20464;-80
2020/12/16 03:29:21;;;;;;;12.88;8.75;;;6.20;99.90;;;;;;4974940;28;20102;-79
2020/12/16 03:31:46;;;;;;;12.27;8.75;;;6.20;99.90;;;;;;4976313;28;20027;-79
2020/12/16 03:34:12;;;;;;;12.77;8.75;;;6.20;99.90;;;;;;4975113;28;20027;-78
2020/12/16 03:36:37;;;;;;;13.88;9.30;;;6.20;99.90;;;;;;4990921;28;20027;-79
2020/12/16 03:39:04;;;;;;;14.88;9.18;;;6.20;99.90;;;;;;4975568;28;20023;-79
2020/12/16 03:41:30;;;;;;;18.35;9.73;;;6.20;99.90;;;;;;4975779;28;20027;-79
2020/12/16 03:43:55;;;;;;;13.27;9.23;;;6.20;99.90;;;;;;4974808;28;20087;-79
2020/12/16 03:46:21;;;;;;;18.30;9.55;;;6.30;99.90;;;;;;4976139;28;20100;-79
2020/12/16 03:48:47;;;;;;;14.55;9.15;;;6.20;99.90;;;;;;4991484;28;20396;-79
2020/12/16 03:51:15;;;;;;;18.90;9.18;;;6.30;99.90;;;;;;4975945;28;20038;-79
2020/12/16 03:53:41;;;;;;;;;;;6.30;99.90;;;;;;4975056;28;20058;-79
2020/12/16 03:56:08;;;;;;;27.83;10.02;;;6.40;99.90;;;;;;4974316;28;19910;-79
2020/12/16 03:58:34;;;;;;;17.40;9.70;;;6.30;99.90;;;;;;4990997;28;20065;-79
2020/12/16 04:01:07;;;;;;;13.90;10.27;;;6.30;99.90;;;;;;4974730;28;20090;-79
2020/12/16 04:03:33;;;;;;;35.35;9.35;;;6.30;99.90;;;;;;4974974;28;20489;-80
2020/12/16 04:05:59;;;;;;;14.13;9.90;;;6.30;99.90;;;;;;4972783;28;20392;-79
2020/12/16 04:08:24;;;;;;;23.60;10.35;;;6.30;99.90;;;;;;4973486;28;20117;-79
2020/12/16 04:10:50;;;;;;;34.13;10.02;;;6.30;99.90;;;;;;4973959;28;20536;-79
2020/12/16 04:13:16;;;;;;;28.10;10.32;;;6.30;99.90;;;;;;4974788;28;20105;-78
2020/12/16 04:15:45;;;;;;;13.57;9.55;;;6.30;99.90;;;;;;4972609;28;20122;-79
2020/12/16 04:18:11;;;;;;;49.72;9.55;;;6.20;99.90;;;;;;4973423;28;20117;-79
2020/12/16 04:20:37;;;;;;;13.63;9.40;;;6.10;99.90;;;;;;4972588;28;20114;-79
2020/12/16 04:23:04;;;;;;;12.95;9.10;;;6.20;99.90;;;;;;4974366;28;20496;-79
2020/12/16 04:25:31;;;;;;;13.95;9.73;;;6.30;99.90;;;;;;4973169;28;20113;-79
2020/12/16 04:27:56;;;;;;;16.20;10.18;;;6.40;99.90;;;;;;4972122;28;20038;-79
2020/12/16 04:30:22;;;;;;;53.90;10.85;;;6.20;99.90;;;;;;4972608;28;20084;-79
2020/12/16 04:32:51;;;;;;;20.80;10.95;;;5.70;99.90;;;;;;4971837;28;20077;-79
2020/12/16 04:35:20;;;;;;;18.65;10.20;;;5.70;99.90;;;;;;4972857;28;20034;-79
2020/12/16 04:37:49;;;;;;;14.07;10.25;;;6.00;99.90;;;;;;4973867;28;20035;-79
2020/12/16 04:40:15;;;;;;;12.95;9.57;;;6.00;99.90;;;;;;4972840;28;20556;-78
2020/12/16 04:42:42;;;;;;;12.43;9.32;;;6.20;99.90;;;;;;4972967;28;20035;-81
2020/12/16 04:45:09;;;;;;;13.93;9.43;;;6.30;99.90;;;;;;4971301;28;20066;-79
2020/12/16 04:47:35;;;;;;;13.05;9.43;;;6.30;99.90;;;;;;4971154;28;20022;-78
2020/12/16 04:50:01;;;;;;;14.98;9.65;;;6.30;99.90;;;;;;4971122;28;20370;-79
2020/12/16 04:52:28;;;;;;;12.50;9.02;;;6.40;99.90;;;;;;4971130;28;20405;-79
2020/12/16 04:54:54;;;;;;;124.07;10.50;;;6.50;99.90;;;;;;4972020;28;20430;-79
2020/12/16 04:57:22;;;;;;;83.40;10.90;;;6.20;99.90;;;;;;4971742;28;20027;-79
2020/12/16 04:59:49;;;;;;;61.72;11.73;;;5.80;99.90;;;;;;4971854;28;20094;-79
2020/12/16 05:02:14;;;;;;;14.70;10.32;;;5.50;99.90;;;;;;4973345;28;20063;-80
2020/12/16 05:04:40;;;;;;;22.58;10.35;;;5.70;99.90;;;;;;4971255;28;20050;-79
2020/12/16 05:07:06;;;;;;;39.45;11.90;;;6.00;99.90;;;;;;4971220;28;20417;-78
2020/12/16 05:09:32;;;;;;;22.70;9.90;;;5.70;99.90;;;;;;4971797;28;20035;-79
2020/12/16 05:11:57;;;;;;;14.10;9.82;;;5.70;99.90;;;;;;4971862;28;20041;-78
2020/12/16 05:14:24;;;;;;;46.28;11.25;;;5.80;99.90;;;;;;4971390;28;20027;-79
2020/12/16 05:16:51;;;;;;;19.97;11.30;;;5.50;99.90;;;;;;4971156;28;20082;-79
2020/12/16 05:19:37;;;;;;;18.88;9.82;;;5.60;99.90;;;;;;4971699;28;20039;-78
2020/12/16 05:22:16;;;;;;;42.13;10.90;;;5.50;99.90;;;;;;4970587;28;20026;-79
2020/12/16 05:24:45;;;;;;;79.32;13.70;;;5.40;99.90;;;;;;4971188;28;20426;-78
2020/12/16 05:27:15;;;;;;;71.60;12.52;;;;;;;;;;4970598;28;20034;-80
2020/12/16 05:29:41;;;;;;;57.25;12.20;;;;;;;;;;4970559;28;20179;-78
2020/12/16 05:32:15;;;;;;;47.22;11.60;;;;;;;;;;4972477;28;20023;-79
2020/12/16 05:34:41;;;;;;;67.25;11.38;;;;;;;;;;4971799;28;20030;-79
2020/12/16 05:37:25;;;;;;;42.17;11.60;;;;;;;;;;4970586;28;20109;-79
2020/12/16 05:39:55;;;;;;;53.33;12.25;;;;;;;;;;4972639;28;20823;-79
2020/12/16 05:42:21;;;;;;;56.88;12.63;;;;;;;;;;4971457;28;20022;-79
2020/12/16 05:44:47;;;;;;;54.22;12.15;;;;;;;;;;4970856;28;20027;-78
2020/12/16 05:47:15;;;;;;;39.67;12.13;;;;;;;;;;4972571;28;20023;-78
2020/12/16 05:49:41;;;;;;;47.65;12.20;;;;;;;;;;4972124;28;20502;-78
2020/12/16 05:52:07;;;;;;;44.50;12.90;;;;;;;;;;4971804;28;20062;-78
2020/12/16 05:54:37;;;;;;;49.65;13.15;;;5.30;99.90;;;;;;4971700;28;20058;-78
2020/12/16 05:57:18;;;;;;;41.15;12.48;;;;;;;;;;4971489;28;20027;-78
2020/12/16 06:00:02;;;;;;;45.33;12.55;;;;;;;;;;4971116;28;20026;-80
2020/12/16 06:02:35;;;;;;;37.42;11.95;;;;;;;;;;4970110;28;20474;-80
2020/12/16 06:05:09;;;;;;;33.35;12.68;;;4.60;99.90;;;;;;4971090;28;20406;-79
2020/12/16 06:07:47;;;;;;;20.80;11.88;;;4.50;99.90;;;;;;4970290;28;20389;-78
2020/12/16 06:10:14;;;;;;;22.23;12.23;;;4.60;99.90;;;;;;4970225;28;20033;-78
2020/12/16 06:12:42;;;;;;;17.27;10.98;;;4.90;99.90;;;;;;4971139;28;20113;-78
2020/12/16 06:15:13;;;;;;;13.05;8.88;;;5.10;99.90;;;;;;4969163;28;20058;-78
2020/12/16 06:17:49;;;;;;;12.25;8.57;;;5.20;99.90;;;;;;4969483;28;20023;-78
2020/12/16 06:20:17;;;;;;;10.00;7.10;;;5.40;99.90;;;;;;4969746;28;20077;-79
2020/12/16 06:22:44;;;;;;;10.60;7.35;;;5.60;99.90;;;;;;4969845;28;20046;-78
2020/12/16 06:25:13;;;;;;;8.83;6.20;;;5.70;99.90;;;;;;4969741;28;20054;-78
2020/12/16 06:27:52;;;;;;;8.68;6.57;;;5.90;99.90;;;;;;4970898;28;20077;-79
2020/12/16 06:30:30;;;;;;;8.43;6.32;;;6.00;99.90;;;;;;4970264;28;20099;-78
2020/12/16 06:33:11;;;;;;;8.70;6.70;;;6.10;99.90;;;;;;4970576;28;20042;-78
2020/12/16 06:35:39;;;;;;;9.43;7.20;;;6.10;99.90;;;;;;4970814;28;20077;-79
2020/12/16 06:38:22;;;;;;;9.63;6.72;;;6.10;99.90;;;;;;4972824;28;20027;-80
2020/12/16 06:40:52;;;;;;;9.45;6.90;;;6.20;99.90;;;;;;4973572;28;20082;-81
2020/12/16 06:43:38;;;;;;;7.82;6.00;;;6.30;99.90;;;;;;4971334;28;20030;-81
2020/12/16 06:46:40;;;;;;;9.82;6.97;;;6.40;99.90;;;;;;4971803;28;20118;-81
2020/12/16 06:49:13;;;;;;;9.15;6.60;;;6.40;99.90;;;;;;4971142;28;20089;-79
2020/12/16 06:51:46;;;;;;;9.68;6.90;;;6.40;99.90;;;;;;4973101;28;20117;-79
2020/12/16 06:54:20;;;;;;;9.00;6.35;;;6.40;99.90;;;;;;4971051;28;20551;-79
2020/12/16 06:57:18;;;;;;;7.88;5.93;;;6.40;99.90;;;;;;4987346;28;20030;-79
2020/12/16 07:00:04;;;;;;;11.82;7.28;;;6.30;99.90;;;;;;4971581;28;20023;-78
2020/12/16 07:02:34;;;;;;;10.50;7.43;;;6.10;99.90;;;;;;4971082;28;20035;-82
2020/12/16 07:05:02;;;;;;;10.25;7.43;;;6.10;99.90;;;;;;4970876;28;20069;-79
2020/12/16 07:07:57;;;;;;;10.32;7.20;;;6.00;99.90;;;;;;4986085;28;20035;-79
2020/12/16 07:10:35;;;;;;;11.07;7.35;;;6.10;99.90;;;;;;4970602;28;20118;-80
2020/12/16 07:13:13;;;;;;;12.05;7.80;;;6.10;99.90;;;;;;4971009;28;20030;-79
2020/12/16 07:15:55;;;;;;;10.55;7.47;;;6.00;99.90;;;;;;4969678;28;20485;-79
2020/12/16 07:18:48;;;;;;;11.48;7.60;;;6.10;99.90;;;;;;4970823;28;20034;-79
2020/12/16 07:21:16;;;;;;;12.18;7.65;;;6.30;99.90;;;;;;4970495;28;20047;-79
2020/12/16 07:23:45;;;;;;;11.85;7.75;;;6.20;99.90;;;;;;4971844;28;20058;-79
2020/12/16 07:26:25;;;;;;;10.10;7.32;;;6.20;99.90;;;;;;4970088;28;20082;-80
2020/12/16 07:28:50;;;;;;;13.90;9.52;;;6.10;99.90;;;;;;4969095;28;20034;-82
2020/12/16 07:31:16;;;;;;;16.30;9.88;;;6.10;99.90;;;;;;4969649;28;20031;-82
2020/12/16 07:33:43;;;;;;;16.15;12.40;;;5.90;99.90;;;;;;4968226;28;20510;-81
2020/12/16 07:36:09;;;;;;;15.02;10.40;;;5.80;99.90;;;;;;4970069;28;20401;-81
2020/12/16 07:38:35;;;;;;;13.25;8.75;;;6.00;99.90;;;;;;4969532;28;20354;-81
2020/12/16 07:41:01;;;;;;;14.77;9.68;;;6.20;99.90;;;;;;4985416;28;20034;-79
2020/12/16 07:43:27;;;;;;;12.43;8.00;;;6.20;99.90;;;;;;4970474;28;20508;-79
2020/12/16 07:46:05;;;;;;;11.40;8.30;;;6.30;99.90;;;;;;4986380;28;20118;-80
2020/12/16 07:48:31;;;;;;;12.75;8.30;;;6.30;99.90;;;;;;4969925;28;20474;-80
2020/12/16 07:51:07;;;;;;;11.90;8.27;;;6.30;99.90;;;;;;4968747;28;20026;-80
2020/12/16 07:53:35;;;;;;;12.48;8.57;;;6.40;99.90;;;;;;4974478;28;20027;-79
2020/12/16 07:56:04;;;;;;;11.48;8.15;;;6.40;99.90;;;;;;4987153;28;20106;-80
2020/12/16 07:58:31;;;;;;;11.55;7.85;;;6.30;99.90;;;;;;4973341;28;20034;-80
2020/12/16 08:01:13;;;;;;;11.88;7.97;;;6.40;99.90;;;;;;4973235;28;20034;-79
2020/12/16 08:03:41;;;;;;;11.05;7.60;;;6.60;99.90;;;;;;4972995;28;20022;-79
2020/12/16 08:06:07;;;;;;;11.80;8.32;;;6.60;99.90;;;;;;4973062;28;20652;-80
2020/12/16 08:08:43;;;;;;;11.90;7.95;;;6.70;99.90;;;;;;4973242;28;20031;-79
2020/12/16 08:11:15;;;;;;;11.18;7.47;;;6.80;99.90;;;;;;4972284;28;20034;-79
2020/12/16 08:13:41;;;;;;;11.32;7.90;;;6.90;99.90;;;;;;4972508;28;20529;-79
2020/12/16 08:16:07;;;;;;;13.02;8.45;;;6.90;99.90;;;;;;4971904;28;20149;-79
2020/12/16 08:18:33;;;;;;;12.90;8.43;;;6.90;99.90;;;;;;4975337;28;20544;-79
2020/12/16 08:20:59;;;;;;;13.18;8.27;;;6.90;99.90;;;;;;4975052;28;20023;-80
2020/12/16 08:23:25;;;;;;;12.05;8.50;;;6.90;99.90;;;;;;4973613;28;20077;-79
2020/12/16 08:25:50;;;;;;;12.05;8.52;;;6.90;99.90;;;;;;4971322;28;20506;-79
2020/12/16 08:28:25;;;;;;;11.63;8.38;;;6.80;99.90;;;;;;4972775;28;20505;-79
2020/12/16 08:30:52;;;;;;;13.25;8.45;;;6.90;99.90;;;;;;4974353;28;20772;-80
2020/12/16 08:33:18;;;;;;;17.60;8.67;;;6.90;99.90;;;;;;4973508;28;20599;-80
2020/12/16 08:35:59;;;;;;;12.00;8.48;;;7.00;99.90;;;;;;4973157;28;20034;-79
2020/12/16 08:38:37;;;;;;;15.63;8.88;;;6.90;99.90;;;;;;4973768;28;20027;-79
2020/12/16 08:41:05;;;;;;;13.63;9.35;;;6.80;99.90;;;;;;4972904;28;20125;-79
2020/12/16 08:43:37;;;;;;;20.88;9.77;;;6.80;99.90;;;;;;4972668;28;20062;-79
2020/12/16 08:46:21;;;;;;;11.20;8.02;;;6.80;99.90;;;;;;4973861;28;20141;-79
2020/12/16 08:49:01;;;;;;;16.92;11.15;;;6.70;99.90;;;;;;4973011;28;20118;-79
2020/12/16 08:51:41;;;;;;;15.95;10.40;;;6.80;99.90;;;;;;4973227;28;20448;-79
2020/12/16 08:54:18;;;;;;;18.08;11.35;;;6.90;99.90;;;;;;4972538;28;20035;-79
2020/12/16 08:56:52;;;;;;;34.42;12.52;;;7.00;99.90;;;;;;4974497;28;20102;-79
2020/12/16 08:59:18;;;;;;;36.05;12.20;;;7.10;99.90;;;;;;4973163;28;20030;-79
2020/12/16 09:01:54;;;;;;;44.03;11.93;;;7.10;99.90;;;;;;4974186;28;20026;-80
2020/12/16 09:04:26;;;;;;;14.95;7.85;;;6.90;99.90;;;;;;4971091;28;20113;-79
2020/12/16 09:07:09;;;;;;;15.15;7.97;;;7.00;99.90;;;;;;4972586;28;20643;-79
2020/12/16 09:09:40;;;;;;;13.38;9.35;;;7.00;99.90;;;;;;4973393;28;20073;-78
2020/12/16 09:12:14;;;;;;;23.38;8.90;;;7.10;99.90;;;;;;4972373;28;20600;-80
2020/12/16 09:15:02;;;;;;;44.85;9.32;;;7.10;99.90;;;;;;4972035;28;20110;-79
2020/12/16 09:17:31;;;;;;;17.60;10.05;;;7.10;99.90;;;;;;4973135;28;20019;-79
2020/12/16 09:19:58;;;;;;;12.43;8.73;;;6.90;99.90;;;;;;4971930;28;20033;-79
2020/12/16 09:22:29;;;;;;;83.97;9.07;;;7.10;99.90;;;;;;4971984;28;20023;-79
2020/12/16 09:24:58;;;;;;;14.00;9.57;;;7.20;99.90;;;;;;4972913;28;20501;-79
2020/12/16 09:27:24;;;;;;;15.82;10.95;;;7.30;99.90;;;;;;4970790;28;20054;-80
2020/12/16 09:29:50;;;;;;;15.25;8.85;;;7.60;99.90;;;;;;4970177;28;20076;-79
2020/12/16 09:32:17;;;;;;;10.98;7.93;;;8.00;99.90;;;;;;4968560;28;20027;-80
2020/12/16 09:34:50;;;;;;;10.77;8.00;;;8.30;99.90;;;;;;4969961;28;20041;-80
2020/12/16 09:37:24;;;;;;;11.93;7.97;;;8.20;99.90;;;;;;4970893;28;20509;-82
2020/12/16 09:40:01;;;;;;;12.18;8.20;;;8.40;99.90;;;;;;4970845;28;20031;-80
2020/12/16 09:42:26;;;;;;;14.70;9.83;;;8.60;99.90;;;;;;4972778;28;20405;-80
2020/12/16 09:44:52;;;;;;;10.45;7.05;;;8.80;99.90;;;;;;4969597;28;20540;-81
2020/12/16 09:47:22;;;;;;;10.10;6.53;;;9.30;99.90;;;;;;4973777;28;20080;-81
2020/12/16 09:49:59;;;;;;;7.93;6.20;;;9.70;99.90;;;;;;4951010;28;20082;-82
2020/12/16 09:52:28;;;;;;;8.80;6.35;;;10.20;99.90;;;;;;4950282;28;20031;-81
2020/12/16 09:54:53;;;;;;;7.75;5.57;;;10.80;99.90;;;;;;4948080;29;20059;-78
2020/12/16 09:57:21;;;;;;;6.55;5.40;;;11.30;99.90;;;;;;4950439;29;20062;-79
2020/12/16 09:59:47;;;;;;;;;;;11.50;99.90;;;;;;4951093;28;20023;-78
2020/12/16 10:02:12;;;;;;;7.93;5.90;;;11.90;99.90;;;;;;4949895;28;19913;-77
2020/12/16 10:04:38;;;;;;;9.77;5.80;;;12.40;99.90;;;;;;4948569;29;20027;-79
2020/12/16 10:07:04;;;;;;;8.38;6.10;;;12.90;99.90;;;;;;4948578;29;20027;-79
2020/12/16 10:09:29;;;;;;;9.70;6.00;;;13.40;99.90;;;;;;4948688;29;20034;-77
2020/12/16 10:11:55;;;;;;;9.80;6.47;;;13.70;99.90;;;;;;4950152;29;20031;-79
2020/12/16 10:14:20;;;;;;;8.93;5.60;;;13.50;99.90;;;;;;4949541;28;20030;-79
2020/12/16 10:16:49;;;;;;;8.70;5.55;;;13.90;99.90;;;;;;4948284;28;20038;-79
2020/12/16 10:19:16;;;;;;;9.57;6.15;;;14.60;99.90;;;;;;4950010;29;20083;-78
2020/12/16 10:21:46;;;;;;;7.32;5.38;;;14.90;99.90;;;;;;4949956;28;20102;-78
2020/12/16 10:24:12;;;;;;;10.50;6.43;;;15.30;99.90;;;;;;4948406;28;20111;-77
2020/12/16 10:26:37;;;;;;;9.23;5.70;;;15.60;98.90;;;;;;4949380;28;20184;-77
2020/12/16 10:29:03;;;;;;;9.32;5.82;;;15.80;98.20;;;;;;4948341;29;20086;-79
2020/12/16 10:31:29;;;;;;;7.40;5.65;;;16.40;96.40;;;;;;4947964;28;20035;-77
2020/12/16 10:33:54;;;;;;;8.35;5.70;;;16.70;94.50;;;;;;4966575;28;20026;-78
2020/12/16 10:36:20;;;;;;;6.63;4.97;;;17.00;94.00;;;;;;4966689;28;20046;-78
2020/12/16 10:38:46;;;;;;;7.30;5.38;;;17.10;93.90;;;;;;4968579;28;20035;-79
2020/12/16 10:41:12;;;;;;;8.25;5.10;;;17.30;92.20;;;;;;4968833;28;20027;-77
2020/12/16 10:43:38;;;;;;;8.95;5.18;;;17.40;91.50;;;;;;4967526;28;20022;-79
2020/12/16 10:46:07;;;;;;;7.13;5.05;;;17.70;91.30;;;;;;4968131;28;20031;-80
2020/12/16 10:48:32;;;;;;;6.55;4.88;;;17.80;91.30;;;;;;4969139;28;20105;-78
2020/12/16 10:50:58;;;;;;;7.07;4.63;;;17.90;90.30;;;;;;4968724;28;20446;-78
2020/12/16 10:53:25;;;;;;;6.88;5.00;;;17.90;89.40;;;;;;4967360;28;20041;-77
2020/12/16 10:55:52;;;;;;;9.27;5.37;;;17.20;91.10;;;;;;4967253;28;20053;-78
2020/12/16 10:58:18;;;;;;;6.07;4.68;;;17.30;89.10;;;;;;4967491;28;20369;-77
2020/12/16 11:00:44;;;;;;;7.43;5.13;;;17.40;89.50;;;;;;4967987;28;20026;-77
2020/12/16 11:03:09;;;;;;;9.65;5.22;;;17.40;89.50;;;;;;4967073;28;20019;-79
2020/12/16 11:05:35;;;;;;;7.07;4.85;;;17.30;90.40;;;;;;4967862;28;20078;-80
2020/12/16 11:08:01;;;;;;;8.18;4.88;;;17.20;90.80;;;;;;4968814;28;20490;-78
2020/12/16 11:10:27;;;;;;;6.63;5.00;;;16.90;90.20;;;;;;4966791;28;20031;-80
2020/12/16 11:12:52;;;;;;;6.88;4.65;;;16.30;91.60;;;;;;4966970;28;20027;-78
2020/12/16 11:15:18;;;;;;;6.65;4.63;;;15.80;92.50;;;;;;4967985;28;20469;-77
2020/12/16 11:17:44;;;;;;;8.25;5.68;;;15.50;93.40;;;;;;4968613;28;20038;-80
2020/12/16 11:20:09;;;;;;;8.55;5.47;;;15.00;95.00;;;;;;4968579;28;20030;-79
2020/12/16 11:22:37;;;;;;;7.30;5.13;;;15.00;95.30;;;;;;4967142;28;20201;-77
2020/12/16 11:25:04;;;;;;;;;;;14.80;95.90;;;;;;4966535;28;20537;-80
2020/12/16 11:27:29;;;;;;;9.65;5.32;;;14.00;96.60;;;;;;4970480;28;20082;-77
2020/12/16 11:29:55;;;;;;;8.05;5.30;;;13.80;98.90;;;;;;4970971;28;20089;-79
2020/12/16 11:32:20;;;;;;;8.65;5.95;;;13.90;98.30;;;;;;4970448;28;20027;-78
2020/12/16 11:34:46;;;;;;;8.75;5.50;;;13.50;99.90;;;;;;4971674;28;20089;-81
2020/12/16 11:37:14;;;;;;;8.60;5.80;;;13.70;99.90;;;;;;4971857;28;20027;-81
2020/12/16 11:39:40;;;;;;;;;;;13.20;99.90;;;;;;4971258;28;20026;-81
2020/12/16 11:42:07;;;;;;;8.98;5.53;;;13.70;99.90;;;;;;4970596;28;19914;-80
2020/12/16 11:44:33;;;;;;;8.07;5.50;;;14.20;99.90;;;;;;4971405;28;20473;-79
2020/12/16 11:46:59;;;;;;;9.05;5.53;;;14.50;99.60;;;;;;4970180;28;20181;-79
2020/12/16 11:49:26;;;;;;;9.25;6.25;;;14.70;99.70;;;;;;4972388;28;20517;-79
2020/12/16 11:51:52;;;;;;;7.40;5.30;;;14.70;99.90;;;;;;4971875;28;20023;-81
2020/12/16 11:54:18;;;;;;;8.95;6.50;;;14.40;99.80;;;;;;4971341;28;20126;-79
2020/12/16 11:56:44;;;;;;;8.55;5.70;;;14.10;99.90;;;;;;4971791;28;20429;-80
2020/12/16 11:59:09;;;;;;;8.88;5.90;;;13.70;99.90;;;;;;4971656;28;20030;-80
2020/12/16 12:01:35;;;;;;;8.85;5.82;;;13.60;99.90;;;;;;4972174;28;20023;-79
2020/12/16 12:04:01;;;;;;;8.73;5.38;;;13.40;99.90;;;;;;4971568;28;20026;-79
2020/12/16 12:06:28;;;;;;;8.18;5.45;;;13.80;99.90;;;;;;4970124;28;20045;-79
2020/12/16 12:08:54;;;;;;;9.85;6.13;;;14.10;99.90;;;;;;4970292;28;20118;-79
2020/12/16 12:11:20;;;;;;;9.23;5.75;;;14.60;99.90;;;;;;4971637;28;20060;-79
2020/12/16 12:13:46;;;;;;;7.68;5.45;;;14.80;99.40;;;;;;4971864;28;20579;-80
2020/12/16 12:16:13;;;;;;;7.55;5.25;;;14.40;99.90;;;;;;4971281;28;20394;-79
2020/12/16 12:18:39;;;;;;;8.68;5.78;;;14.30;99.90;;;;;;4970936;28;20065;-80
2020/12/16 12:21:06;;;;;;;6.65;4.72;;;14.40;99.90;;;;;;4970338;28;20053;-79
2020/12/16 12:23:32;;;;;;;6.38;4.97;;;14.80;99.90;;;;;;4971897;28;20466;-80
2020/12/16 12:25:58;;;;;;;7.72;4.75;;;14.70;99.20;;;;;;4970840;28;20109;-80
2020/12/16 12:28:23;;;;;;;7.65;5.47;;;14.30;99.90;;;;;;4971531;28;20748;-79
2020/12/16 12:30:50;;;;;;;8.32;5.80;;;14.90;99.80;;;;;;4969855;28;20038;-79
2020/12/16 12:33:15;;;;;;;9.80;6.30;;;15.10;98.10;;;;;;4969876;28;20482;-80
2020/12/16 12:35:41;;;;;;;16.50;6.30;;;14.70;98.70;;;;;;4969071;28;20022;-79
2020/12/16 12:38:07;;;;;;;11.50;6.95;;;14.00;99.90;;;;;;4970499;28;20034;-79
2020/12/16 12:40:32;;;;;;;12.48;6.57;;;13.40;99.90;;;;;;4970910;28;20019;-79
2020/12/16 12:42:58;;;;;;;9.88;6.53;;;13.60;99.90;;;;;;4969670;28;20449;-80
2020/12/16 12:45:23;;;;;;;8.00;5.50;;;14.30;99.90;;;;;;4968760;28;20030;-79
2020/12/16 12:47:49;;;;;;;8.73;5.78;;;15.10;99.90;;;;;;4970870;28;20105;-80
2020/12/16 12:50:15;;;;;;;8.30;5.40;;;15.30;99.90;;;;;;4971148;28;20034;-80
2020/12/16 12:52:40;;;;;;;10.70;7.32;;;15.40;99.80;;;;;;4970862;28;20050;-80
2020/12/16 12:55:06;;;;;;;11.45;7.82;;;14.80;99.50;;;;;;4969865;28;20102;-79
2020/12/16 12:57:39;;;;;;;11.52;6.97;;;14.00;99.90;;;;;;4968743;28;20034;-82